createdAt,value
2023-08-11T00:02:09.034Z,101963.53
2023-08-11T00:06:10.761Z,101955.63
2023-08-11T00:10:13.692Z,101951.06
2023-08-11T00:14:15.289Z,101956.25
2023-08-11T00:18:17.109Z,101966.91
2023-08-11T00:22:18.698Z,101960.34
2023-08-11T00:26:20.255Z,101966.16
2023-08-11T00:30:21.823Z,101966.69
2023-08-11T00:34:23.985Z,101965.81
2023-08-11T00:38:37.049Z,101961.53
2023-08-11T00:42:38.743Z,101967.22
2023-08-11T00:46:43.235Z,101960.41
2023-08-11T00:50:44.922Z,101961.88
2023-08-11T00:54:48.227Z,101959.50
2023-08-11T00:58:51.970Z,101950.91
2023-08-11T01:02:53.640Z,101963.44
2023-08-11T01:07:04.117Z,101966.91
2023-08-11T01:11:18.372Z,101968.38
2023-08-11T01:15:40.853Z,101965.03
2023-08-11T01:19:43.393Z,101960.34
2023-08-11T01:23:45.722Z,101956.03
2023-08-11T01:27:57.632Z,101963.72
2023-08-11T01:31:59.301Z,101962.75
2023-08-11T01:36:00.922Z,101953.56
2023-08-11T01:40:03.466Z,101962.44
2023-08-11T01:44:07.037Z,101960.66
2023-08-11T01:48:09.708Z,101948.06
2023-08-11T01:52:11.914Z,101951.63
2023-08-11T01:56:13.757Z,101954.34
2023-08-11T02:00:17.245Z,101956.56
2023-08-11T02:04:19.058Z,101956.50
2023-08-11T02:08:20.691Z,101954.88
2023-08-11T02:12:22.650Z,101952.75
2023-08-11T02:16:25.006Z,101957.59
2023-08-11T02:20:27.279Z,101941.88
2023-08-11T02:24:29.043Z,101941.16
2023-08-11T02:28:30.551Z,101945.38
2023-08-11T02:32:35.557Z,101944.84
2023-08-11T02:36:37.840Z,101942.22
2023-08-11T02:40:39.548Z,101944.56
2023-08-11T02:44:42.908Z,101939.41
2023-08-11T02:48:44.554Z,101942.50
2023-08-11T02:52:46.277Z,101939.25
2023-08-11T02:56:48.997Z,101947.84
2023-08-11T03:00:51.115Z,101945.06
2023-08-11T03:04:53.780Z,101939.44
2023-08-11T03:08:55.380Z,101940.41
2023-08-11T03:12:57.040Z,101940.94
2023-08-11T03:17:00.409Z,101937.84
2023-08-11T03:21:17.523Z,101945.78
2023-08-11T03:25:22.296Z,101931.19
2023-08-11T03:29:25.286Z,101929.22
2023-08-11T03:33:27.073Z,101932.19
2023-08-11T03:37:38.212Z,101940.34
2023-08-11T03:41:39.921Z,101944.88
2023-08-11T03:45:42.040Z,101939.34
2023-08-11T03:49:48.215Z,101941.28
2023-08-11T03:53:49.836Z,101938.28
2023-08-11T03:57:52.733Z,101943.59
2023-08-11T04:01:58.290Z,101937.47
2023-08-11T04:06:00.189Z,101933.75
2023-08-11T04:10:02.099Z,101932.91
2023-08-11T04:14:04.008Z,101931.56
2023-08-11T04:18:05.626Z,101933.44
2023-08-11T04:22:07.448Z,101933.47
2023-08-11T04:26:09.308Z,101943.91
2023-08-11T04:30:13.599Z,101947.44
2023-08-11T04:34:17.677Z,101944.25
2023-08-11T04:38:21.190Z,101938.97
2023-08-11T04:42:23.135Z,101946.25
2023-08-11T04:46:25.415Z,101950.03
2023-08-11T04:50:27.593Z,101939.75
2023-08-11T04:54:32.138Z,101943.97
2023-08-11T04:58:39.295Z,101942.06
2023-08-11T05:02:43.012Z,101943.59
2023-08-11T05:06:44.801Z,101940.69
2023-08-11T05:10:46.399Z,101945.97
2023-08-11T05:14:48.712Z,101954.00
2023-08-11T05:18:50.332Z,101955.81
2023-08-11T05:22:53.389Z,101968.06
2023-08-11T05:26:55.131Z,101963.56
2023-08-11T05:30:57.348Z,101978.84
2023-08-11T05:35:00.143Z,101967.91
2023-08-11T05:39:01.838Z,101965.47
2023-08-11T05:43:04.110Z,101967.72
2023-08-11T05:47:06.833Z,101966.84
2023-08-11T05:51:08.792Z,101964.47
2023-08-11T05:55:11.014Z,101970.81
2023-08-11T05:59:13.002Z,101971.75
2023-08-11T06:03:15.324Z,101964.69
2023-08-11T06:07:17.201Z,101975.03
2023-08-11T06:11:18.816Z,101970.03
2023-08-11T06:15:20.661Z,101975.66
2023-08-11T06:19:22.402Z,101977.03
2023-08-11T06:23:26.206Z,101973.44
2023-08-11T06:27:29.333Z,101981.50
2023-08-11T06:31:31.976Z,101988.06
2023-08-11T06:35:34.248Z,101974.22
2023-08-11T06:39:36.197Z,101984.16
2023-08-11T06:43:39.736Z,101980.47
2023-08-11T06:47:41.629Z,101977.91
2023-08-11T06:51:43.232Z,101983.81
2023-08-11T06:55:45.127Z,101984.47
2023-08-11T06:59:48.437Z,101988.03
2023-08-11T07:03:50.297Z,101978.84
2023-08-11T07:07:51.946Z,101986.25
2023-08-11T07:11:53.635Z,101995.25
2023-08-11T07:15:56.391Z,101982.78
2023-08-11T07:19:58.045Z,101983.41
2023-08-11T07:23:59.689Z,101985.19
2023-08-11T07:28:01.439Z,101982.19
2023-08-11T07:32:05.193Z,101970.28
2023-08-11T07:36:07.186Z,101967.94
2023-08-11T07:40:09.559Z,101976.69
2023-08-11T07:44:11.154Z,101996.53
2023-08-11T07:48:12.949Z,101992.63
2023-08-11T07:52:14.662Z,101990.38
2023-08-11T07:56:16.456Z,101987.13
2023-08-11T08:00:20.620Z,101995.09
2023-08-11T08:04:22.408Z,102007.22
2023-08-11T08:08:24.012Z,102000.03
2023-08-11T08:12:25.665Z,101999.09
2023-08-11T08:16:27.399Z,102014.88
2023-08-11T08:20:29.061Z,102010.25
2023-08-11T08:24:30.678Z,102020.78
2023-08-11T08:28:34.346Z,102020.75
2023-08-11T08:32:38.021Z,102026.94
2023-08-11T08:36:39.525Z,102024.47
2023-08-11T08:40:41.836Z,102026.41
2023-08-11T08:44:43.630Z,102028.81
2023-08-11T08:48:57.218Z,102022.78
2023-08-11T08:53:02.133Z,102015.88
2023-08-11T08:57:06.887Z,102022.38
2023-08-11T09:01:10.173Z,102029.41
2023-08-11T09:05:13.231Z,102024.94
2023-08-11T09:09:16.307Z,102021.84
2023-08-11T09:13:18.017Z,102026.72
2023-08-11T09:17:19.705Z,102025.19
2023-08-11T09:21:23.708Z,102019.28
2023-08-11T09:25:25.407Z,102011.38
2023-08-11T09:29:27.318Z,102010.75
2023-08-11T09:33:31.247Z,102009.91
2023-08-11T09:37:32.926Z,102015.19
2023-08-11T09:41:41.320Z,102011.13
2023-08-11T09:45:43.208Z,102015.81
2023-08-11T09:49:45.031Z,102013.38
2023-08-11T09:53:47.428Z,102009.25
2023-08-11T09:57:49.885Z,102002.28
2023-08-11T10:01:54.143Z,102008.63
2023-08-11T10:06:01.016Z,102007.97
2023-08-11T10:10:11.777Z,102000.75
2023-08-11T10:14:17.827Z,102003.97
2023-08-11T10:18:20.977Z,101994.06
2023-08-11T10:22:22.936Z,101995.06
2023-08-11T10:26:25.029Z,102003.94
2023-08-11T10:30:27.083Z,101998.72
2023-08-11T10:34:28.879Z,102002.41
2023-08-11T10:38:32.951Z,102006.09
2023-08-11T10:42:38.332Z,101997.97
2023-08-11T10:46:41.704Z,101999.81
2023-08-11T10:50:44.108Z,102009.34
2023-08-11T10:54:54.874Z,102006.28
2023-08-11T10:59:19.684Z,102005.63
2023-08-11T11:03:22.405Z,102008.03
2023-08-11T11:07:24.724Z,102018.28
2023-08-11T11:11:26.417Z,102021.78
2023-08-11T11:15:31.030Z,102017.00
2023-08-11T11:19:32.960Z,102016.53
2023-08-11T11:23:34.986Z,102016.28
2023-08-11T11:27:42.507Z,102018.28
2023-08-11T11:31:44.485Z,102014.06
2023-08-11T11:35:46.217Z,102012.50
2023-08-11T11:39:47.932Z,102007.03
2023-08-11T11:43:51.587Z,102008.38
2023-08-11T11:47:54.567Z,102011.66
2023-08-11T11:51:56.433Z,102006.28
2023-08-11T11:55:58.860Z,102004.22
2023-08-11T12:00:04.614Z,102002.84
2023-08-11T12:04:16.257Z,102004.13
2023-08-11T12:08:24.708Z,102006.16
2023-08-11T12:12:28.020Z,101998.97
2023-08-11T12:16:29.794Z,101999.75
2023-08-11T12:20:31.561Z,101993.88
2023-08-11T12:24:33.322Z,102002.00
2023-08-11T12:28:34.972Z,102001.22
2023-08-11T12:32:36.693Z,101999.97
2023-08-11T12:36:38.411Z,101999.88
2023-08-11T12:40:41.815Z,102002.41
2023-08-11T12:44:43.434Z,101996.44
2023-08-11T12:48:45.251Z,101995.56
2023-08-11T12:52:46.848Z,101991.44
2023-08-11T12:56:48.617Z,101988.31
2023-08-11T13:00:50.422Z,101986.06
2023-08-11T13:04:52.423Z,101989.69
2023-08-11T13:08:54.285Z,101990.78
2023-08-11T13:12:55.961Z,101987.69
2023-08-11T13:16:57.961Z,101989.34
2023-08-11T13:20:59.674Z,101987.28
2023-08-11T13:25:01.350Z,101982.44
2023-08-11T13:29:04.093Z,101992.91
2023-08-11T13:33:06.089Z,101987.16
2023-08-11T13:37:07.897Z,101990.84
2023-08-11T13:41:10.383Z,101995.84
2023-08-11T13:45:12.106Z,101990.84
2023-08-11T13:49:13.835Z,101985.06
2023-08-11T13:53:16.114Z,101989.84
2023-08-11T13:57:17.603Z,101986.47
2023-08-11T14:01:19.161Z,101983.81
2023-08-11T14:05:21.147Z,101986.28
2023-08-11T14:09:22.825Z,101981.63
2023-08-11T14:13:28.932Z,101976.03
2023-08-11T14:17:30.597Z,101977.31
2023-08-11T14:21:32.074Z,101971.44
2023-08-11T14:25:33.894Z,101974.84
2023-08-11T14:29:35.584Z,101973.16
2023-08-11T14:33:40.383Z,101975.50
2023-08-11T14:37:42.261Z,101967.75
2023-08-11T14:41:45.520Z,101973.94
2023-08-11T14:45:47.247Z,101968.69
2023-08-11T14:49:48.992Z,101974.13
2023-08-11T14:53:50.707Z,101967.59
2023-08-11T14:57:52.290Z,101966.16
2023-08-11T15:01:54.272Z,101952.59
2023-08-11T15:05:56.172Z,101960.69
2023-08-11T15:09:57.974Z,101950.47
2023-08-11T15:13:59.613Z,101941.84
2023-08-11T15:18:01.248Z,101950.06
2023-08-11T15:22:03.005Z,101951.63
2023-08-11T15:26:05.506Z,101961.75
2023-08-11T15:30:07.645Z,101948.88
2023-08-11T15:34:09.438Z,101929.19
2023-08-11T15:38:11.087Z,101939.91
2023-08-11T15:42:12.949Z,101935.34
2023-08-11T15:46:14.670Z,101930.31
2023-08-11T15:50:16.316Z,101934.44
2023-08-11T15:54:18.001Z,101917.06
2023-08-11T15:58:19.767Z,101922.19
2023-08-11T16:02:23.517Z,101921.09
2023-08-11T16:06:25.825Z,101916.47
2023-08-11T16:10:30.115Z,101920.47
2023-08-11T16:14:33.169Z,101915.81
2023-08-11T16:18:35.422Z,101919.00
2023-08-11T16:22:37.225Z,101907.09
2023-08-11T16:26:38.977Z,101904.47
2023-08-11T16:30:52.098Z,101915.72
2023-08-11T16:34:56.313Z,101915.31
2023-08-11T16:38:58.199Z,101916.81
2023-08-11T16:43:00.588Z,101922.97
2023-08-11T16:47:02.236Z,101913.47
2023-08-11T16:51:04.071Z,101907.53
2023-08-11T16:55:06.733Z,101902.84
2023-08-11T16:59:08.231Z,101901.28
2023-08-11T17:03:11.167Z,101898.34
2023-08-11T17:07:13.064Z,101899.09
2023-08-11T17:11:15.152Z,101900.56
2023-08-11T17:15:17.998Z,101896.28
2023-08-11T17:19:19.731Z,101901.72
2023-08-11T17:23:21.220Z,101897.47
2023-08-11T17:27:22.999Z,101907.75
2023-08-11T17:31:24.903Z,101903.03
2023-08-11T17:35:26.857Z,101905.22
2023-08-11T17:39:28.548Z,101905.75
2023-08-11T17:43:30.076Z,101913.19
2023-08-11T17:47:31.792Z,101901.97
2023-08-11T17:51:33.380Z,101902.16
2023-08-11T17:55:34.961Z,101897.44
2023-08-11T17:59:36.738Z,101902.88
2023-08-11T18:03:38.670Z,101907.03
2023-08-11T18:07:40.448Z,101901.94
2023-08-11T18:11:42.192Z,101906.00
2023-08-11T18:15:43.848Z,101904.75
2023-08-11T18:19:46.010Z,101912.09
2023-08-11T18:23:47.819Z,101904.38
2023-08-11T18:27:49.528Z,101906.56
2023-08-11T18:31:51.427Z,101905.13
2023-08-11T18:35:53.337Z,101908.06
2023-08-11T18:39:55.028Z,101912.22
2023-08-11T18:43:56.632Z,101914.94
2023-08-11T18:47:58.495Z,101905.50
2023-08-11T18:52:00.193Z,101910.84
2023-08-11T18:56:01.853Z,101912.38
2023-08-11T19:00:05.250Z,101917.91
2023-08-11T19:04:08.478Z,101917.22
2023-08-11T19:08:10.718Z,101919.28
2023-08-11T19:12:12.718Z,101910.97
2023-08-11T19:16:14.529Z,101911.19
2023-08-11T19:20:16.418Z,101911.22
2023-08-11T19:24:18.297Z,101911.78
2023-08-11T19:28:19.926Z,101899.13
2023-08-11T19:32:21.472Z,101902.19
2023-08-11T19:36:23.135Z,101890.00
2023-08-11T19:40:25.034Z,101891.69
2023-08-11T19:44:26.675Z,101889.56
2023-08-11T19:48:28.360Z,101886.31
2023-08-11T19:52:30.585Z,101896.81
2023-08-11T19:56:32.149Z,101890.16
2023-08-11T20:00:33.724Z,101886.66
2023-08-11T20:04:35.645Z,101883.94
2023-08-11T20:08:37.413Z,101886.66
2023-08-11T20:12:39.099Z,101886.56
2023-08-11T20:16:40.822Z,101873.84
2023-08-11T20:20:45.491Z,101883.88
2023-08-11T20:24:47.346Z,101880.59
2023-08-11T20:28:49.099Z,101870.75
2023-08-11T20:32:51.251Z,101868.75
2023-08-11T20:36:52.972Z,101861.94
2023-08-11T20:40:58.140Z,101863.44
2023-08-11T20:44:59.785Z,101861.22
2023-08-11T20:49:01.443Z,101856.97
2023-08-11T20:53:03.272Z,101851.41
2023-08-11T20:57:05.064Z,101845.59
2023-08-11T21:01:07.963Z,101847.31
2023-08-11T21:05:10.424Z,101847.47
2023-08-11T21:09:12.320Z,101842.13
2023-08-11T21:13:13.964Z,101835.50
2023-08-11T21:17:15.735Z,101837.50
2023-08-11T21:21:17.639Z,101832.03
2023-08-11T21:25:19.312Z,101834.53
2023-08-11T21:29:20.797Z,101831.28
2023-08-11T21:33:22.357Z,101833.41
2023-08-11T21:37:24.227Z,101838.91
2023-08-11T21:41:26.034Z,101833.56
2023-08-11T21:45:28.117Z,101835.34
2023-08-11T21:49:30.428Z,101823.44
2023-08-11T21:53:31.984Z,101828.16
2023-08-11T21:57:33.983Z,101819.06
2023-08-11T22:01:35.518Z,101811.72
2023-08-11T22:05:37.188Z,101828.56
2023-08-11T22:09:39.550Z,101826.91
2023-08-11T22:13:41.163Z,101821.47
2023-08-11T22:17:43.617Z,101823.84
2023-08-11T22:21:45.200Z,101813.53
2023-08-11T22:25:47.215Z,101818.03
2023-08-11T22:29:50.486Z,101818.16
2023-08-11T22:33:52.361Z,101815.81
2023-08-11T22:37:54.071Z,101823.75
2023-08-11T22:41:55.661Z,101819.06
2023-08-11T22:45:57.379Z,101817.56
2023-08-11T22:49:59.147Z,101819.72
2023-08-11T22:54:00.860Z,101810.38
2023-08-11T22:58:02.517Z,101814.34
2023-08-11T23:02:04.467Z,101812.81
2023-08-11T23:06:06.199Z,101810.75
2023-08-11T23:10:08.713Z,101814.53
2023-08-11T23:14:10.420Z,101817.63
2023-08-11T23:18:12.202Z,101813.97
2023-08-11T23:22:13.919Z,101807.38
2023-08-11T23:26:15.636Z,101814.34
2023-08-11T23:30:17.228Z,101799.00
2023-08-11T23:34:19.111Z,101801.50
2023-08-11T23:38:21.243Z,101813.50
2023-08-11T23:42:23.304Z,101813.72
2023-08-11T23:46:24.975Z,101805.28
2023-08-11T23:50:27.613Z,101799.72
2023-08-11T23:54:29.247Z,101801.34
2023-08-11T23:58:30.931Z,101794.28
